sensor_id;sensor_type;location;lat;lon;timestamp;P1;durP1;ratioP1;P2;durP2;ratioP2
66472;SDS011;53291;51.680;8.344;2022-07-23T00:00:44;19.20;;;9.57;;
66472;SDS011;53291;51.680;8.344;2022-07-23T00:03:11;14.55;;;9.57;;
66472;SDS011;53291;51.680;8.344;2022-07-23T00:05:37;16.52;;;9.63;;
66472;SDS011;53291;51.680;8.344;2022-07-23T00:08:02;15.15;;;8.98;;
66472;SDS011;53291;51.680;8.344;2022-07-23T00:10:28;16.25;;;8.75;;
66472;SDS011;53291;51.680;8.344;2022-07-23T00:12:53;15.80;;;8.68;;
66472;SDS011;53291;51.680;8.344;2022-07-23T00:15:19;16.05;;;8.70;;
66472;SDS011;53291;51.680;8.344;2022-07-23T00:17:44;13.65;;;8.68;;
66472;SDS011;53291;51.680;8.344;2022-07-23T00:20:09;14.93;;;9.23;;
66472;SDS011;53291;51.680;8.344;2022-07-23T00:22:35;15.85;;;9.23;;
66472;SDS011;53291;51.680;8.344;2022-07-23T00:25:01;14.98;;;8.50;;
66472;SDS011;53291;51.680;8.344;2022-07-23T00:27:26;16.70;;;10.20;;
66472;SDS011;53291;51.680;8.344;2022-07-23T00:29:51;15.50;;;9.25;;
66472;SDS011;53291;51.680;8.344;2022-07-23T00:32:17;16.35;;;9.02;;
66472;SDS011;53291;51.680;8.344;2022-07-23T00:34:42;16.38;;;8.88;;
66472;SDS011;53291;51.680;8.344;2022-07-23T00:37:07;15.60;;;8.20;;
66472;SDS011;53291;51.680;8.344;2022-07-23T00:39:33;15.20;;;8.93;;
66472;SDS011;53291;51.680;8.344;2022-07-23T00:41:58;15.98;;;8.98;;
66472;SDS011;53291;51.680;8.344;2022-07-23T00:44:25;15.55;;;8.73;;
66472;SDS011;53291;51.680;8.344;2022-07-23T00:46:55;16.35;;;9.18;;
66472;SDS011;53291;51.680;8.344;2022-07-23T00:49:23;15.00;;;8.55;;
66472;SDS011;53291;51.680;8.344;2022-07-23T00:51:50;16.05;;;8.73;;
66472;SDS011;53291;51.680;8.344;2022-07-23T00:54:16;14.60;;;8.70;;
66472;SDS011;53291;51.680;8.344;2022-07-23T00:56:45;17.67;;;9.68;;
66472;SDS011;53291;51.680;8.344;2022-07-23T00:59:11;15.80;;;8.85;;
66472;SDS011;53291;51.680;8.344;2022-07-23T01:01:37;16.42;;;9.25;;
66472;SDS011;53291;51.680;8.344;2022-07-23T01:04:03;15.23;;;9.50;;
66472;SDS011;53291;51.680;8.344;2022-07-23T01:06:29;15.90;;;9.93;;
66472;SDS011;53291;51.680;8.344;2022-07-23T01:08:58;17.38;;;9.98;;
66472;SDS011;53291;51.680;8.344;2022-07-23T01:11:24;17.25;;;9.27;;
66472;SDS011;53291;51.680;8.344;2022-07-23T01:13:50;13.90;;;8.13;;
66472;SDS011;53291;51.680;8.344;2022-07-23T01:16:15;16.67;;;10.30;;
66472;SDS011;53291;51.680;8.344;2022-07-23T01:18:40;15.13;;;8.80;;
66472;SDS011;53291;51.680;8.344;2022-07-23T01:21:06;15.65;;;8.90;;
66472;SDS011;53291;51.680;8.344;2022-07-23T01:23:32;14.75;;;9.10;;
66472;SDS011;53291;51.680;8.344;2022-07-23T01:25:57;15.63;;;9.65;;
66472;SDS011;53291;51.680;8.344;2022-07-23T01:28:22;15.60;;;9.20;;
66472;SDS011;53291;51.680;8.344;2022-07-23T01:30:48;16.30;;;9.65;;
66472;SDS011;53291;51.680;8.344;2022-07-23T01:33:13;19.13;;;10.32;;
66472;SDS011;53291;51.680;8.344;2022-07-23T01:35:39;16.60;;;9.90;;
66472;SDS011;53291;51.680;8.344;2022-07-23T01:38:05;16.38;;;10.07;;
66472;SDS011;53291;51.680;8.344;2022-07-23T01:40:30;17.08;;;10.25;;
66472;SDS011;53291;51.680;8.344;2022-07-23T01:42:56;16.27;;;11.30;;
66472;SDS011;53291;51.680;8.344;2022-07-23T01:45:21;17.95;;;10.10;;
66472;SDS011;53291;51.680;8.344;2022-07-23T01:47:47;19.08;;;11.10;;
66472;SDS011;53291;51.680;8.344;2022-07-23T01:50:13;18.88;;;10.63;;
66472;SDS011;53291;51.680;8.344;2022-07-23T01:52:38;17.67;;;11.10;;
66472;SDS011;53291;51.680;8.344;2022-07-23T01:55:04;21.45;;;10.88;;
66472;SDS011;53291;51.680;8.344;2022-07-23T01:57:30;14.55;;;9.27;;
66472;SDS011;53291;51.680;8.344;2022-07-23T01:59:56;17.73;;;10.38;;
66472;SDS011;53291;51.680;8.344;2022-07-23T02:02:21;19.38;;;10.68;;
66472;SDS011;53291;51.680;8.344;2022-07-23T02:04:47;16.75;;;10.40;;
66472;SDS011;53291;51.680;8.344;2022-07-23T02:07:12;19.23;;;11.63;;
66472;SDS011;53291;51.680;8.344;2022-07-23T02:09:38;18.30;;;11.05;;
66472;SDS011;53291;51.680;8.344;2022-07-23T02:12:03;16.95;;;10.50;;
66472;SDS011;53291;51.680;8.344;2022-07-23T02:14:29;17.67;;;10.23;;
66472;SDS011;53291;51.680;8.344;2022-07-23T02:16:54;17.35;;;10.45;;
66472;SDS011;53291;51.680;8.344;2022-07-23T02:19:20;19.52;;;11.35;;
66472;SDS011;53291;51.680;8.344;2022-07-23T02:21:45;17.77;;;10.82;;
66472;SDS011;53291;51.680;8.344;2022-07-23T02:24:10;18.38;;;11.50;;
66472;SDS011;53291;51.680;8.344;2022-07-23T02:26:36;18.73;;;10.45;;
66472;SDS011;53291;51.680;8.344;2022-07-23T02:29:02;17.60;;;10.45;;
66472;SDS011;53291;51.680;8.344;2022-07-23T02:31:29;20.98;;;10.55;;
66472;SDS011;53291;51.680;8.344;2022-07-23T02:33:54;19.92;;;11.15;;
66472;SDS011;53291;51.680;8.344;2022-07-23T02:36:20;18.92;;;10.10;;
66472;SDS011;53291;51.680;8.344;2022-07-23T02:38:45;20.48;;;11.00;;
66472;SDS011;53291;51.680;8.344;2022-07-23T02:41:12;18.92;;;11.75;;
66472;SDS011;53291;51.680;8.344;2022-07-23T02:43:37;19.63;;;11.45;;
66472;SDS011;53291;51.680;8.344;2022-07-23T02:46:03;19.52;;;11.35;;
66472;SDS011;53291;51.680;8.344;2022-07-23T02:48:28;19.42;;;11.77;;
66472;SDS011;53291;51.680;8.344;2022-07-23T02:50:53;19.33;;;11.50;;
66472;SDS011;53291;51.680;8.344;2022-07-23T02:53:21;18.80;;;11.27;;
66472;SDS011;53291;51.680;8.344;2022-07-23T02:55:47;18.88;;;11.63;;
66472;SDS011;53291;51.680;8.344;2022-07-23T02:58:12;18.08;;;11.20;;
66472;SDS011;53291;51.680;8.344;2022-07-23T03:00:37;21.65;;;10.82;;
66472;SDS011;53291;51.680;8.344;2022-07-23T03:03:03;21.63;;;11.70;;
66472;SDS011;53291;51.680;8.344;2022-07-23T03:05:28;19.15;;;10.48;;
66472;SDS011;53291;51.680;8.344;2022-07-23T03:07:53;18.33;;;11.15;;
66472;SDS011;53291;51.680;8.344;2022-07-23T03:10:19;20.60;;;11.77;;
66472;SDS011;53291;51.680;8.344;2022-07-23T03:12:44;20.48;;;11.27;;
66472;SDS011;53291;51.680;8.344;2022-07-23T03:15:10;19.55;;;10.73;;
66472;SDS011;53291;51.680;8.344;2022-07-23T03:17:35;18.83;;;11.00;;
66472;SDS011;53291;51.680;8.344;2022-07-23T03:20:00;18.63;;;11.40;;
66472;SDS011;53291;51.680;8.344;2022-07-23T03:22:26;23.92;;;12.88;;
66472;SDS011;53291;51.680;8.344;2022-07-23T03:24:51;20.00;;;11.43;;
66472;SDS011;53291;51.680;8.344;2022-07-23T03:27:23;20.00;;;11.55;;
66472;SDS011;53291;51.680;8.344;2022-07-23T03:29:49;20.42;;;11.90;;
66472;SDS011;53291;51.680;8.344;2022-07-23T03:32:15;22.05;;;11.30;;
66472;SDS011;53291;51.680;8.344;2022-07-23T03:34:41;18.35;;;11.60;;
66472;SDS011;53291;51.680;8.344;2022-07-23T03:37:06;22.15;;;12.50;;
66472;SDS011;53291;51.680;8.344;2022-07-23T03:39:32;20.95;;;11.02;;
66472;SDS011;53291;51.680;8.344;2022-07-23T03:41:57;21.23;;;12.05;;
66472;SDS011;53291;51.680;8.344;2022-07-23T03:44:23;20.52;;;11.38;;
66472;SDS011;53291;51.680;8.344;2022-07-23T03:46:48;23.27;;;12.43;;
66472;SDS011;53291;51.680;8.344;2022-07-23T03:49:13;23.48;;;12.95;;
66472;SDS011;53291;51.680;8.344;2022-07-23T03:51:39;25.95;;;14.40;;
66472;SDS011;53291;51.680;8.344;2022-07-23T03:54:04;28.77;;;16.92;;
66472;SDS011;53291;51.680;8.344;2022-07-23T03:56:30;29.65;;;16.35;;
66472;SDS011;53291;51.680;8.344;2022-07-23T03:58:55;27.88;;;15.32;;
66472;SDS011;53291;51.680;8.344;2022-07-23T04:01:20;28.40;;;16.85;;
66472;SDS011;53291;51.680;8.344;2022-07-23T04:03:46;28.48;;;16.27;;
66472;SDS011;53291;51.680;8.344;2022-07-23T04:06:11;29.98;;;17.45;;
66472;SDS011;53291;51.680;8.344;2022-07-23T04:08:38;29.70;;;16.77;;
66472;SDS011;53291;51.680;8.344;2022-07-23T04:11:03;30.00;;;18.15;;
66472;SDS011;53291;51.680;8.344;2022-07-23T04:13:29;29.15;;;17.30;;
66472;SDS011;53291;51.680;8.344;2022-07-23T04:15:54;30.15;;;16.63;;
66472;SDS011;53291;51.680;8.344;2022-07-23T04:18:20;28.65;;;16.73;;
66472;SDS011;53291;51.680;8.344;2022-07-23T04:20:48;27.00;;;15.52;;
66472;SDS011;53291;51.680;8.344;2022-07-23T04:23:14;25.75;;;16.10;;
66472;SDS011;53291;51.680;8.344;2022-07-23T04:25:39;27.35;;;15.32;;
66472;SDS011;53291;51.680;8.344;2022-07-23T04:28:04;23.88;;;14.60;;
66472;SDS011;53291;51.680;8.344;2022-07-23T04:30:30;27.05;;;14.73;;
66472;SDS011;53291;51.680;8.344;2022-07-23T04:32:55;24.27;;;14.25;;
66472;SDS011;53291;51.680;8.344;2022-07-23T04:35:20;25.05;;;13.18;;
66472;SDS011;53291;51.680;8.344;2022-07-23T04:37:46;25.65;;;14.20;;
66472;SDS011;53291;51.680;8.344;2022-07-23T04:40:12;22.48;;;13.45;;
66472;SDS011;53291;51.680;8.344;2022-07-23T04:42:37;22.80;;;12.38;;
66472;SDS011;53291;51.680;8.344;2022-07-23T04:45:03;20.48;;;13.25;;
66472;SDS011;53291;51.680;8.344;2022-07-23T04:47:29;21.45;;;13.10;;
66472;SDS011;53291;51.680;8.344;2022-07-23T04:49:55;18.55;;;12.13;;
66472;SDS011;53291;51.680;8.344;2022-07-23T04:52:21;17.67;;;12.82;;
66472;SDS011;53291;51.680;8.344;2022-07-23T04:54:46;18.38;;;11.75;;
66472;SDS011;53291;51.680;8.344;2022-07-23T04:57:12;18.67;;;12.18;;
66472;SDS011;53291;51.680;8.344;2022-07-23T04:59:37;19.48;;;13.05;;
66472;SDS011;53291;51.680;8.344;2022-07-23T05:02:02;22.05;;;12.13;;
66472;SDS011;53291;51.680;8.344;2022-07-23T05:04:28;18.85;;;12.48;;
66472;SDS011;53291;51.680;8.344;2022-07-23T05:06:53;17.20;;;11.75;;
66472;SDS011;53291;51.680;8.344;2022-07-23T05:09:19;17.75;;;10.55;;
66472;SDS011;53291;51.680;8.344;2022-07-23T05:11:44;14.98;;;10.13;;
66472;SDS011;53291;51.680;8.344;2022-07-23T05:14:09;16.45;;;9.40;;
66472;SDS011;53291;51.680;8.344;2022-07-23T05:16:37;16.27;;;9.52;;
66472;SDS011;53291;51.680;8.344;2022-07-23T05:19:03;17.73;;;9.80;;
66472;SDS011;53291;51.680;8.344;2022-07-23T05:21:28;13.65;;;8.93;;
66472;SDS011;53291;51.680;8.344;2022-07-23T05:23:53;13.75;;;8.93;;
66472;SDS011;53291;51.680;8.344;2022-07-23T05:26:19;15.63;;;9.25;;
66472;SDS011;53291;51.680;8.344;2022-07-23T05:28:44;13.73;;;8.73;;
66472;SDS011;53291;51.680;8.344;2022-07-23T05:31:10;12.48;;;8.38;;
66472;SDS011;53291;51.680;8.344;2022-07-23T05:33:35;12.90;;;8.98;;
66472;SDS011;53291;51.680;8.344;2022-07-23T05:36:04;16.85;;;8.90;;
66472;SDS011;53291;51.680;8.344;2022-07-23T05:38:29;13.50;;;8.13;;
66472;SDS011;53291;51.680;8.344;2022-07-23T05:40:56;11.82;;;7.90;;
66472;SDS011;53291;51.680;8.344;2022-07-23T05:43:21;11.57;;;8.15;;
66472;SDS011;53291;51.680;8.344;2022-07-23T05:45:47;13.10;;;8.45;;
66472;SDS011;53291;51.680;8.344;2022-07-23T05:48:12;12.90;;;8.05;;
66472;SDS011;53291;51.680;8.344;2022-07-23T05:50:38;12.32;;;9.18;;
66472;SDS011;53291;51.680;8.344;2022-07-23T05:53:03;12.05;;;8.38;;
66472;SDS011;53291;51.680;8.344;2022-07-23T05:55:28;11.98;;;7.93;;
66472;SDS011;53291;51.680;8.344;2022-07-23T05:57:56;11.23;;;7.90;;
66472;SDS011;53291;51.680;8.344;2022-07-23T06:00:22;12.10;;;8.18;;
66472;SDS011;53291;51.680;8.344;2022-07-23T06:02:47;13.30;;;8.98;;
66472;SDS011;53291;51.680;8.344;2022-07-23T06:05:13;12.18;;;7.95;;
66472;SDS011;53291;51.680;8.344;2022-07-23T06:07:38;10.82;;;7.60;;
66472;SDS011;53291;51.680;8.344;2022-07-23T06:10:04;13.52;;;8.18;;
66472;SDS011;53291;51.680;8.344;2022-07-23T06:12:30;12.35;;;7.35;;
66472;SDS011;53291;51.680;8.344;2022-07-23T06:14:55;12.80;;;7.78;;
66472;SDS011;53291;51.680;8.344;2022-07-23T06:17:20;13.18;;;7.82;;
66472;SDS011;53291;51.680;8.344;2022-07-23T06:19:46;11.85;;;7.65;;
66472;SDS011;53291;51.680;8.344;2022-07-23T06:22:11;12.15;;;7.20;;
66472;SDS011;53291;51.680;8.344;2022-07-23T06:24:37;12.07;;;7.47;;
66472;SDS011;53291;51.680;8.344;2022-07-23T06:27:02;15.43;;;7.90;;
66472;SDS011;53291;51.680;8.344;2022-07-23T06:29:28;13.13;;;7.80;;
66472;SDS011;53291;51.680;8.344;2022-07-23T06:31:53;14.10;;;8.57;;
66472;SDS011;53291;51.680;8.344;2022-07-23T06:34:19;15.52;;;8.00;;
66472;SDS011;53291;51.680;8.344;2022-07-23T06:36:44;11.02;;;7.38;;
66472;SDS011;53291;51.680;8.344;2022-07-23T06:39:10;11.15;;;7.80;;
66472;SDS011;53291;51.680;8.344;2022-07-23T06:41:35;14.90;;;7.97;;
66472;SDS011;53291;51.680;8.344;2022-07-23T06:44:01;13.35;;;7.80;;
66472;SDS011;53291;51.680;8.344;2022-07-23T06:46:26;11.23;;;7.18;;
66472;SDS011;53291;51.680;8.344;2022-07-23T06:48:51;11.48;;;6.90;;
66472;SDS011;53291;51.680;8.344;2022-07-23T06:51:17;12.82;;;6.97;;
66472;SDS011;53291;51.680;8.344;2022-07-23T06:53:42;11.65;;;6.68;;
66472;SDS011;53291;51.680;8.344;2022-07-23T06:56:08;11.30;;;7.07;;
66472;SDS011;53291;51.680;8.344;2022-07-23T06:58:33;11.95;;;6.95;;
66472;SDS011;53291;51.680;8.344;2022-07-23T07:00:58;10.30;;;6.22;;
66472;SDS011;53291;51.680;8.344;2022-07-23T07:03:24;10.05;;;7.00;;
66472;SDS011;53291;51.680;8.344;2022-07-23T07:05:49;12.07;;;7.20;;
66472;SDS011;53291;51.680;8.344;2022-07-23T07:08:15;10.93;;;6.97;;
66472;SDS011;53291;51.680;8.344;2022-07-23T07:10:41;12.80;;;8.10;;
66472;SDS011;53291;51.680;8.344;2022-07-23T07:13:06;13.88;;;7.65;;
66472;SDS011;53291;51.680;8.344;2022-07-23T07:15:32;12.52;;;8.00;;
66472;SDS011;53291;51.680;8.344;2022-07-23T07:17:57;11.75;;;8.38;;
66472;SDS011;53291;51.680;8.344;2022-07-23T07:20:23;12.27;;;7.90;;
66472;SDS011;53291;51.680;8.344;2022-07-23T07:22:48;10.93;;;6.75;;
66472;SDS011;53291;51.680;8.344;2022-07-23T07:25:14;11.77;;;7.00;;
66472;SDS011;53291;51.680;8.344;2022-07-23T07:27:39;9.77;;;5.93;;
66472;SDS011;53291;51.680;8.344;2022-07-23T07:30:05;10.90;;;6.60;;
66472;SDS011;53291;51.680;8.344;2022-07-23T07:32:32;11.15;;;7.13;;
66472;SDS011;53291;51.680;8.344;2022-07-23T07:34:57;9.98;;;7.63;;
66472;SDS011;53291;51.680;8.344;2022-07-23T07:37:23;10.00;;;6.43;;
66472;SDS011;53291;51.680;8.344;2022-07-23T07:39:48;10.38;;;6.47;;
66472;SDS011;53291;51.680;8.344;2022-07-23T07:42:14;13.18;;;7.40;;
66472;SDS011;53291;51.680;8.344;2022-07-23T07:44:39;12.27;;;8.10;;
66472;SDS011;53291;51.680;8.344;2022-07-23T07:47:05;13.27;;;7.22;;
66472;SDS011;53291;51.680;8.344;2022-07-23T07:49:30;9.75;;;5.30;;
66472;SDS011;53291;51.680;8.344;2022-07-23T07:51:55;11.05;;;6.85;;
66472;SDS011;53291;51.680;8.344;2022-07-23T07:54:21;11.50;;;7.35;;
66472;SDS011;53291;51.680;8.344;2022-07-23T07:56:46;9.57;;;6.57;;
66472;SDS011;53291;51.680;8.344;2022-07-23T07:59:13;10.07;;;6.82;;
66472;SDS011;53291;51.680;8.344;2022-07-23T08:01:40;10.57;;;6.35;;
66472;SDS011;53291;51.680;8.344;2022-07-23T08:04:06;7.82;;;5.82;;
66472;SDS011;53291;51.680;8.344;2022-07-23T08:06:31;9.80;;;6.25;;
66472;SDS011;53291;51.680;8.344;2022-07-23T08:08:57;11.00;;;5.82;;
66472;SDS011;53291;51.680;8.344;2022-07-23T08:11:22;8.27;;;5.65;;
66472;SDS011;53291;51.680;8.344;2022-07-23T08:13:48;9.48;;;6.10;;
66472;SDS011;53291;51.680;8.344;2022-07-23T08:16:13;8.57;;;6.30;;
66472;SDS011;53291;51.680;8.344;2022-07-23T08:18:38;8.35;;;6.47;;
66472;SDS011;53291;51.680;8.344;2022-07-23T08:21:04;9.15;;;6.25;;
66472;SDS011;53291;51.680;8.344;2022-07-23T08:23:30;10.70;;;7.93;;
66472;SDS011;53291;51.680;8.344;2022-07-23T08:25:56;8.70;;;6.85;;
66472;SDS011;53291;51.680;8.344;2022-07-23T08:28:22;9.40;;;6.30;;
66472;SDS011;53291;51.680;8.344;2022-07-23T08:30:48;10.75;;;7.57;;
66472;SDS011;53291;51.680;8.344;2022-07-23T08:33:14;9.52;;;6.53;;
66472;SDS011;53291;51.680;8.344;2022-07-23T08:35:42;9.45;;;7.45;;
66472;SDS011;53291;51.680;8.344;2022-07-23T08:38:10;8.30;;;5.72;;
66472;SDS011;53291;51.680;8.344;2022-07-23T08:40:37;6.78;;;6.07;;
66472;SDS011;53291;51.680;8.344;2022-07-23T08:43:05;7.97;;;5.60;;
66472;SDS011;53291;51.680;8.344;2022-07-23T08:45:36;8.30;;;5.70;;
66472;SDS011;53291;51.680;8.344;2022-07-23T08:48:05;7.47;;;5.35;;
66472;SDS011;53291;51.680;8.344;2022-07-23T08:50:33;11.63;;;5.25;;
66472;SDS011;53291;51.680;8.344;2022-07-23T08:53:01;8.98;;;5.00;;
66472;SDS011;53291;51.680;8.344;2022-07-23T08:55:28;9.90;;;5.40;;
66472;SDS011;53291;51.680;8.344;2022-07-23T08:57:53;9.70;;;5.75;;
66472;SDS011;53291;51.680;8.344;2022-07-23T09:00:19;7.05;;;4.90;;
66472;SDS011;53291;51.680;8.344;2022-07-23T09:02:47;8.82;;;5.88;;
66472;SDS011;53291;51.680;8.344;2022-07-23T09:05:14;11.82;;;8.85;;
66472;SDS011;53291;51.680;8.344;2022-07-23T09:13:29;8.13;;;6.60;;
66472;SDS011;53291;51.680;8.344;2022-07-23T09:18:50;7.43;;;4.75;;
66472;SDS011;53291;51.680;8.344;2022-07-23T09:23:50;7.55;;;5.53;;
66472;SDS011;53291;51.680;8.344;2022-07-23T09:26:20;6.05;;;4.13;;
66472;SDS011;53291;51.680;8.344;2022-07-23T09:28:51;4.90;;;4.25;;
66472;SDS011;53291;51.680;8.344;2022-07-23T09:31:19;7.82;;;5.55;;
66472;SDS011;53291;51.680;8.344;2022-07-23T09:33:45;4.85;;;3.58;;
66472;SDS011;53291;51.680;8.344;2022-07-23T09:36:10;5.35;;;4.07;;
66472;SDS011;53291;51.680;8.344;2022-07-23T09:38:37;6.63;;;5.25;;
66472;SDS011;53291;51.680;8.344;2022-07-23T09:41:13;6.88;;;5.55;;
66472;SDS011;53291;51.680;8.344;2022-07-23T09:43:39;5.07;;;4.18;;
66472;SDS011;53291;51.680;8.344;2022-07-23T09:46:20;7.32;;;4.60;;
66472;SDS011;53291;51.680;8.344;2022-07-23T09:48:51;6.55;;;5.78;;
66472;SDS011;53291;51.680;8.344;2022-07-23T09:51:22;5.88;;;5.30;;
66472;SDS011;53291;51.680;8.344;2022-07-23T09:54:03;5.95;;;4.18;;
66472;SDS011;53291;51.680;8.344;2022-07-23T09:56:29;6.47;;;4.63;;
66472;SDS011;53291;51.680;8.344;2022-07-23T09:58:54;6.28;;;4.15;;
66472;SDS011;53291;51.680;8.344;2022-07-23T10:01:36;6.10;;;4.28;;
66472;SDS011;53291;51.680;8.344;2022-07-23T10:04:01;5.07;;;2.90;;
66472;SDS011;53291;51.680;8.344;2022-07-23T10:06:27;4.78;;;3.30;;
66472;SDS011;53291;51.680;8.344;2022-07-23T10:08:54;5.13;;;3.70;;
66472;SDS011;53291;51.680;8.344;2022-07-23T10:11:23;4.20;;;3.40;;
66472;SDS011;53291;51.680;8.344;2022-07-23T10:13:49;5.45;;;3.17;;
66472;SDS011;53291;51.680;8.344;2022-07-23T10:16:35;4.88;;;2.90;;
66472;SDS011;53291;51.680;8.344;2022-07-23T10:19:00;6.47;;;4.78;;
66472;SDS011;53291;51.680;8.344;2022-07-23T10:21:33;5.53;;;4.35;;
66472;SDS011;53291;51.680;8.344;2022-07-23T10:29:36;5.43;;;3.40;;
66472;SDS011;53291;51.680;8.344;2022-07-23T10:34:44;6.43;;;3.80;;
66472;SDS011;53291;51.680;8.344;2022-07-23T10:37:22;7.45;;;3.60;;
66472;SDS011;53291;51.680;8.344;2022-07-23T10:40:08;4.45;;;3.45;;
66472;SDS011;53291;51.680;8.344;2022-07-23T10:42:36;6.13;;;3.83;;
66472;SDS011;53291;51.680;8.344;2022-07-23T10:45:21;5.30;;;2.90;;
66472;SDS011;53291;51.680;8.344;2022-07-23T10:47:47;7.40;;;3.90;;
66472;SDS011;53291;51.680;8.344;2022-07-23T10:50:31;6.03;;;3.58;;
66472;SDS011;53291;51.680;8.344;2022-07-23T10:57:59;7.00;;;3.20;;
66472;SDS011;53291;51.680;8.344;2022-07-23T11:00:26;4.75;;;3.03;;
66472;SDS011;53291;51.680;8.344;2022-07-23T11:02:57;6.65;;;2.42;;
66472;SDS011;53291;51.680;8.344;2022-07-23T11:05:25;5.47;;;2.58;;
66472;SDS011;53291;51.680;8.344;2022-07-23T11:10:35;5.28;;;2.10;;
66472;SDS011;53291;51.680;8.344;2022-07-23T11:23:58;4.82;;;2.40;;
66472;SDS011;53291;51.680;8.344;2022-07-23T11:34:51;5.07;;;1.88;;
66472;SDS011;53291;51.680;8.344;2022-07-23T11:39:58;4.32;;;2.40;;
66472;SDS011;53291;51.680;8.344;2022-07-23T11:42:24;5.45;;;2.70;;
66472;SDS011;53291;51.680;8.344;2022-07-23T11:44:50;3.75;;;1.83;;
66472;SDS011;53291;51.680;8.344;2022-07-23T11:47:20;4.45;;;2.58;;
66472;SDS011;53291;51.680;8.344;2022-07-23T11:52:20;3.33;;;2.58;;
66472;SDS011;53291;51.680;8.344;2022-07-23T11:54:51;4.30;;;2.50;;
66472;SDS011;53291;51.680;8.344;2022-07-23T11:57:19;5.28;;;2.50;;
66472;SDS011;53291;51.680;8.344;2022-07-23T11:59:55;4.65;;;1.83;;
66472;SDS011;53291;51.680;8.344;2022-07-23T12:02:22;4.07;;;1.30;;
66472;SDS011;53291;51.680;8.344;2022-07-23T12:04:49;3.97;;;2.03;;
66472;SDS011;53291;51.680;8.344;2022-07-23T12:07:24;3.28;;;1.65;;
66472;SDS011;53291;51.680;8.344;2022-07-23T12:12:46;3.75;;;2.20;;
66472;SDS011;53291;51.680;8.344;2022-07-23T12:15:32;4.25;;;2.10;;
66472;SDS011;53291;51.680;8.344;2022-07-23T12:17:58;4.60;;;2.17;;
66472;SDS011;53291;51.680;8.344;2022-07-23T12:20:28;4.20;;;2.55;;
66472;SDS011;53291;51.680;8.344;2022-07-23T12:23:00;3.85;;;2.55;;
66472;SDS011;53291;51.680;8.344;2022-07-23T12:25:28;5.03;;;2.38;;
66472;SDS011;53291;51.680;8.344;2022-07-23T12:30:28;4.32;;;2.20;;
66472;SDS011;53291;51.680;8.344;2022-07-23T12:33:18;4.88;;;2.33;;
66472;SDS011;53291;51.680;8.344;2022-07-23T12:35:48;3.25;;;2.35;;
66472;SDS011;53291;51.680;8.344;2022-07-23T12:38:16;3.65;;;2.38;;
66472;SDS011;53291;51.680;8.344;2022-07-23T12:43:19;2.60;;;1.40;;
66472;SDS011;53291;51.680;8.344;2022-07-23T12:45:50;2.17;;;1.33;;
66472;SDS011;53291;51.680;8.344;2022-07-23T12:48:30;2.72;;;2.00;;
66472;SDS011;53291;51.680;8.344;2022-07-23T12:51:05;4.10;;;2.17;;
66472;SDS011;53291;51.680;8.344;2022-07-23T12:53:33;4.45;;;2.15;;
66472;SDS011;53291;51.680;8.344;2022-07-23T12:56:08;2.65;;;1.23;;
66472;SDS011;53291;51.680;8.344;2022-07-23T12:58:42;3.92;;;1.90;;
66472;SDS011;53291;51.680;8.344;2022-07-23T13:01:46;3.22;;;1.25;;
66472;SDS011;53291;51.680;8.344;2022-07-23T13:06:32;3.78;;;2.28;;
66472;SDS011;53291;51.680;8.344;2022-07-23T13:09:00;5.10;;;2.10;;
66472;SDS011;53291;51.680;8.344;2022-07-23T13:11:26;5.45;;;2.08;;
66472;SDS011;53291;51.680;8.344;2022-07-23T13:13:51;2.90;;;1.65;;
66472;SDS011;53291;51.680;8.344;2022-07-23T13:16:17;2.17;;;1.33;;
66472;SDS011;53291;51.680;8.344;2022-07-23T13:18:43;3.35;;;1.80;;
66472;SDS011;53291;51.680;8.344;2022-07-23T13:21:08;2.25;;;1.42;;
66472;SDS011;53291;51.680;8.344;2022-07-23T13:23:34;2.78;;;1.23;;
66472;SDS011;53291;51.680;8.344;2022-07-23T13:26:00;2.30;;;1.33;;
66472;SDS011;53291;51.680;8.344;2022-07-23T13:28:25;3.47;;;1.85;;
66472;SDS011;53291;51.680;8.344;2022-07-23T13:30:51;3.22;;;1.45;;
66472;SDS011;53291;51.680;8.344;2022-07-23T13:33:18;2.60;;;1.75;;
66472;SDS011;53291;51.680;8.344;2022-07-23T13:35:45;2.70;;;1.60;;
66472;SDS011;53291;51.680;8.344;2022-07-23T13:38:11;2.80;;;1.90;;
66472;SDS011;53291;51.680;8.344;2022-07-23T13:40:38;2.80;;;1.23;;
66472;SDS011;53291;51.680;8.344;2022-07-23T13:43:07;2.42;;;1.15;;
66472;SDS011;53291;51.680;8.344;2022-07-23T13:45:34;2.42;;;1.23;;
66472;SDS011;53291;51.680;8.344;2022-07-23T13:47:59;3.17;;;1.48;;
66472;SDS011;53291;51.680;8.344;2022-07-23T13:50:26;2.72;;;1.05;;
66472;SDS011;53291;51.680;8.344;2022-07-23T13:52:51;3.15;;;1.15;;
66472;SDS011;53291;51.680;8.344;2022-07-23T13:55:17;3.55;;;1.25;;
66472;SDS011;53291;51.680;8.344;2022-07-23T13:57:42;2.38;;;1.08;;
66472;SDS011;53291;51.680;8.344;2022-07-23T14:00:08;3.60;;;2.20;;
66472;SDS011;53291;51.680;8.344;2022-07-23T14:02:38;2.50;;;1.85;;
66472;SDS011;53291;51.680;8.344;2022-07-23T14:05:05;5.35;;;2.08;;
66472;SDS011;53291;51.680;8.344;2022-07-23T14:07:33;2.17;;;1.63;;
66472;SDS011;53291;51.680;8.344;2022-07-23T14:09:58;1.95;;;1.30;;
66472;SDS011;53291;51.680;8.344;2022-07-23T14:12:24;3.50;;;1.65;;
66472;SDS011;53291;51.680;8.344;2022-07-23T14:14:50;2.35;;;1.58;;
66472;SDS011;53291;51.680;8.344;2022-07-23T14:17:15;3.17;;;1.50;;
66472;SDS011;53291;51.680;8.344;2022-07-23T14:19:40;2.97;;;1.73;;
66472;SDS011;53291;51.680;8.344;2022-07-23T14:22:06;2.40;;;1.10;;
66472;SDS011;53291;51.680;8.344;2022-07-23T14:24:31;3.03;;;1.80;;
66472;SDS011;53291;51.680;8.344;2022-07-23T14:26:57;2.38;;;1.33;;
66472;SDS011;53291;51.680;8.344;2022-07-23T14:29:24;2.63;;;1.42;;
66472;SDS011;53291;51.680;8.344;2022-07-23T14:31:49;3.15;;;1.27;;
66472;SDS011;53291;51.680;8.344;2022-07-23T14:34:14;3.28;;;1.13;;
66472;SDS011;53291;51.680;8.344;2022-07-23T14:36:40;3.65;;;1.90;;
66472;SDS011;53291;51.680;8.344;2022-07-23T14:39:05;2.92;;;1.88;;
66472;SDS011;53291;51.680;8.344;2022-07-23T14:41:33;3.33;;;1.40;;
66472;SDS011;53291;51.680;8.344;2022-07-23T14:43:59;3.25;;;1.75;;
66472;SDS011;53291;51.680;8.344;2022-07-23T14:46:24;2.78;;;1.67;;
66472;SDS011;53291;51.680;8.344;2022-07-23T14:48:50;2.92;;;1.33;;
66472;SDS011;53291;51.680;8.344;2022-07-23T14:51:15;2.90;;;2.33;;
66472;SDS011;53291;51.680;8.344;2022-07-23T14:53:41;2.97;;;1.80;;
66472;SDS011;53291;51.680;8.344;2022-07-23T14:56:06;2.35;;;1.55;;
66472;SDS011;53291;51.680;8.344;2022-07-23T14:58:31;4.50;;;1.98;;
66472;SDS011;53291;51.680;8.344;2022-07-23T15:00:57;3.20;;;1.77;;
66472;SDS011;53291;51.680;8.344;2022-07-23T15:03:22;2.80;;;1.27;;
66472;SDS011;53291;51.680;8.344;2022-07-23T15:05:49;2.95;;;1.45;;
66472;SDS011;53291;51.680;8.344;2022-07-23T15:08:14;2.60;;;1.25;;
66472;SDS011;53291;51.680;8.344;2022-07-23T15:10:40;2.13;;;1.70;;
66472;SDS011;53291;51.680;8.344;2022-07-23T15:13:05;1.85;;;1.23;;
66472;SDS011;53291;51.680;8.344;2022-07-23T15:15:31;8.77;;;1.90;;
66472;SDS011;53291;51.680;8.344;2022-07-23T15:17:56;2.30;;;1.73;;
66472;SDS011;53291;51.680;8.344;2022-07-23T15:20:22;3.05;;;1.35;;
66472;SDS011;53291;51.680;8.344;2022-07-23T15:22:47;2.60;;;1.17;;
66472;SDS011;53291;51.680;8.344;2022-07-23T15:25:13;3.53;;;2.10;;
66472;SDS011;53291;51.680;8.344;2022-07-23T15:27:38;2.67;;;1.30;;
66472;SDS011;53291;51.680;8.344;2022-07-23T15:30:04;2.55;;;1.65;;
66472;SDS011;53291;51.680;8.344;2022-07-23T15:32:30;2.83;;;1.48;;
66472;SDS011;53291;51.680;8.344;2022-07-23T15:34:55;3.15;;;1.25;;